Time;durP1;ratioP1;P1;durP2;ratioP2;P2;SDS_P1;SDS_P2;PMS_P1;PMS_P2;Temp;Humidity;BMP_temperature;BMP_pressure;BME280_temperature;BME280_humidity;BME280_pressure;Samples;Min_cycle;Max_cycle;Signal;HPM_P1;HPM_P2
2023/06/25 00:01:18;;;;;;;9.40;5.40;;;16.60;61.70;;;;;;5052724;28;20477;-71
2023/06/25 00:03:46;;;;;;;6.47;5.30;;;16.50;61.60;;;;;;5053313;28;20812;-71
2023/06/25 00:06:13;;;;;;;7.80;5.20;;;16.50;62.20;;;;;;5050510;28;20859;-71
2023/06/25 00:08:40;;;;;;;8.80;6.67;;;16.50;62.20;;;;;;5052996;28;20816;-71
2023/06/25 00:11:07;;;;;;;8.23;5.80;;;16.50;62.70;;;;;;5053157;28;20473;-71
2023/06/25 00:13:34;;;;;;;6.77;4.97;;;16.40;62.50;;;;;;5052661;28;20420;-71
2023/06/25 00:16:01;;;;;;;9.07;5.53;;;16.40;62.60;;;;;;5052952;28;20466;-71
2023/06/25 00:18:28;;;;;;;7.30;5.97;;;16.40;62.50;;;;;;5052936;28;20431;-71
2023/06/25 00:20:56;;;;;;;7.37;5.33;;;16.30;62.60;;;;;;5052590;28;20462;-71
2023/06/25 00:23:23;;;;;;;8.87;6.67;;;16.30;63.10;;;;;;5052788;28;20470;-71
2023/06/25 00:25:50;;;;;;;7.37;5.50;;;16.40;63.20;;;;;;5052864;28;20478;-71
2023/06/25 00:28:17;;;;;;;7.00;6.30;;;16.30;63.20;;;;;;5054474;28;20524;-71
2023/06/25 00:30:44;;;;;;;8.70;5.73;;;16.30;63.20;;;;;;5056158;28;20559;-71
2023/06/25 00:33:10;;;;;;;6.97;5.30;;;16.10;63.70;;;;;;5056121;28;20469;-71
2023/06/25 00:36:02;;;;;;;7.73;5.70;;;16.10;63.70;;;;;;5056200;28;20430;-71
2023/06/25 00:38:30;;;;;;;7.10;5.70;;;16.10;63.70;;;;;;5056382;28;20433;-71
2023/06/25 00:40:57;;;;;;;8.33;5.60;;;16.10;63.90;;;;;;5056411;28;20466;-71
2023/06/25 00:43:24;;;;;;;8.50;6.00;;;16.00;64.30;;;;;;5055980;28;20497;-71
2023/06/25 00:45:51;;;;;;;6.73;5.57;;;16.10;64.80;;;;;;5056163;28;20435;-72
2023/06/25 00:48:21;;;;;;;10.33;5.80;;;16.00;64.70;;;;;;5056217;28;20474;-71
2023/06/25 00:50:48;;;;;;;8.17;6.20;;;16.00;65.40;;;;;;5055974;28;20418;-71
2023/06/25 00:53:17;;;;;;;8.33;5.70;;;15.90;65.10;;;;;;5055949;28;20967;-71
2023/06/25 00:55:51;;;;;;;8.70;5.50;;;15.90;65.30;;;;;;5056222;28;20834;-71
2023/06/25 00:58:22;;;;;;;7.13;5.40;;;15.90;65.30;;;;;;5056165;28;20445;-71
2023/06/25 01:00:51;;;;;;;5.93;5.30;;;15.90;65.40;;;;;;5056155;28;20430;-71
2023/06/25 01:03:26;;;;;;;6.03;5.43;;;15.80;65.40;;;;;;5055679;28;20936;-71
2023/06/25 01:06:01;;;;;;;7.53;5.43;;;15.70;66.10;;;;;;5055596;28;20417;-71
2023/06/25 01:08:29;;;;;;;6.00;5.03;;;15.60;66.20;;;;;;5055434;28;20465;-71
2023/06/25 01:10:58;;;;;;;7.43;5.73;;;15.60;66.20;;;;;;5055924;28;20440;-71
2023/06/25 01:13:25;;;;;;;6.07;5.43;;;15.50;66.20;;;;;;5055627;28;20467;-71
2023/06/25 01:15:52;;;;;;;6.40;5.37;;;15.50;66.60;;;;;;5055636;28;20891;-71
2023/06/25 01:18:22;;;;;;;8.80;6.70;;;15.50;66.60;;;;;;5055326;28;20474;-71
2023/06/25 01:20:52;;;;;;;8.07;5.83;;;15.40;66.90;;;;;;5055616;28;20490;-71
2023/06/25 01:23:21;;;;;;;7.87;5.50;;;15.40;67.10;;;;;;5055518;28;20446;-71
2023/06/25 01:25:48;;;;;;;8.80;5.23;;;15.30;67.00;;;;;;5055501;28;20484;-71
2023/06/25 01:28:19;;;;;;;6.77;5.23;;;15.30;66.90;;;;;;5055156;28;20514;-71
2023/06/25 01:30:47;;;;;;;7.70;4.93;;;15.30;66.90;;;;;;5055555;28;20444;-71
2023/06/25 01:33:15;;;;;;;14.50;5.53;;;15.20;66.70;;;;;;5055445;28;20426;-71
2023/06/25 01:35:42;;;;;;;8.23;6.00;;;15.20;66.90;;;;;;5055350;28;20490;-71
2023/06/25 01:38:10;;;;;;;6.93;5.77;;;15.20;67.10;;;;;;5055275;28;20467;-75
2023/06/25 01:40:39;;;;;;;6.30;5.40;;;15.20;67.70;;;;;;5053992;28;20518;-71
2023/06/25 01:43:05;;;;;;;7.80;6.10;;;15.10;67.80;;;;;;5055260;28;20465;-71
2023/06/25 01:45:32;;;;;;;8.23;6.90;;;15.10;68.10;;;;;;5054771;28;20439;-72
2023/06/25 01:48:00;;;;;;;8.33;5.70;;;15.00;68.20;;;;;;5054653;28;20988;-71
2023/06/25 01:50:27;;;;;;;7.50;6.80;;;15.00;68.10;;;;;;5055033;28;20432;-72
2023/06/25 01:52:54;;;;;;;7.60;6.03;;;15.00;67.90;;;;;;5055060;28;20471;-71
2023/06/25 01:55:20;;;;;;;7.70;6.40;;;15.00;68.10;;;;;;5055083;28;20441;-71
2023/06/25 01:57:49;;;;;;;7.50;5.77;;;14.90;68.10;;;;;;5054849;28;20485;-71
2023/06/25 02:00:16;;;;;;;8.10;6.53;;;14.90;68.70;;;;;;5054539;28;20472;-71
2023/06/25 02:02:44;;;;;;;7.30;6.13;;;14.90;69.40;;;;;;5054762;28;20431;-71
2023/06/25 02:05:11;;;;;;;7.80;5.73;;;14.90;69.20;;;;;;5054486;28;20432;-71
2023/06/25 02:07:38;;;;;;;8.13;6.70;;;14.90;69.00;;;;;;5054754;28;20503;-71
2023/06/25 02:10:05;;;;;;;7.67;6.47;;;14.80;69.10;;;;;;5054731;28;20431;-71
2023/06/25 02:12:32;;;;;;;8.40;6.23;;;14.70;69.20;;;;;;5054389;28;20477;-71
2023/06/25 02:15:01;;;;;;;8.07;6.60;;;14.70;69.40;;;;;;5054603;28;20555;-71
2023/06/25 02:17:31;;;;;;;9.17;6.83;;;14.60;69.40;;;;;;5054524;28;20467;-71
2023/06/25 02:19:58;;;;;;;8.27;6.70;;;14.60;69.40;;;;;;5054540;28;20452;-71
2023/06/25 02:22:25;;;;;;;9.23;6.47;;;14.50;69.60;;;;;;5054080;28;20437;-70
2023/06/25 02:24:52;;;;;;;7.57;5.47;;;14.40;69.90;;;;;;5054034;28;20484;-71
2023/06/25 02:27:19;;;;;;;9.13;7.57;;;14.40;70.50;;;;;;5053946;28;20945;-71
2023/06/25 02:29:46;;;;;;;9.17;7.27;;;14.30;70.50;;;;;;5054274;28;20434;-71
2023/06/25 02:32:14;;;;;;;8.70;7.70;;;14.30;71.00;;;;;;5053908;28;20431;-71
2023/06/25 02:34:41;;;;;;;9.37;6.97;;;14.30;70.80;;;;;;5054225;28;20466;-71
2023/06/25 02:37:15;;;;;;;7.80;6.50;;;14.30;71.10;;;;;;5053893;28;20478;-71
2023/06/25 02:39:42;;;;;;;9.37;6.30;;;14.20;71.20;;;;;;5054206;28;20436;-71
2023/06/25 02:42:09;;;;;;;9.60;6.10;;;14.10;72.40;;;;;;5053779;28;20474;-72
2023/06/25 02:44:36;;;;;;;8.87;6.27;;;14.10;72.80;;;;;;5053872;28;20463;-71
2023/06/25 02:47:03;;;;;;;6.80;4.93;;;14.10;72.90;;;;;;5053900;28;20880;-71
2023/06/25 02:49:31;;;;;;;8.30;5.60;;;14.10;73.00;;;;;;5054098;28;20437;-71
2023/06/25 02:51:58;;;;;;;6.70;5.27;;;14.10;72.60;;;;;;5053477;28;20926;-72
2023/06/25 02:54:25;;;;;;;6.63;5.10;;;14.10;72.80;;;;;;5053622;28;20441;-71
2023/06/25 02:56:53;;;;;;;6.40;5.30;;;14.00;72.70;;;;;;5053867;28;20471;-72
2023/06/25 02:59:20;;;;;;;8.27;6.50;;;14.00;72.90;;;;;;5053490;28;20436;-71
2023/06/25 03:01:47;;;;;;;7.73;5.40;;;14.00;72.90;;;;;;5053370;28;20433;-71
2023/06/25 03:04:14;;;;;;;8.00;5.97;;;14.00;73.70;;;;;;5053749;28;20430;-71
2023/06/25 03:06:43;;;;;;;6.37;4.70;;;14.00;73.70;;;;;;5053426;28;20513;-71
2023/06/25 03:09:10;;;;;;;6.20;5.10;;;14.00;73.80;;;;;;5053597;28;20443;-71
2023/06/25 03:11:37;;;;;;;6.30;5.13;;;14.00;73.70;;;;;;5053318;28;20462;-71
2023/06/25 03:14:04;;;;;;;10.30;6.30;;;14.00;74.20;;;;;;5053365;28;20512;-71
2023/06/25 03:16:31;;;;;;;7.50;5.53;;;14.00;73.20;;;;;;5053572;28;20435;-71
2023/06/25 03:18:59;;;;;;;9.37;6.17;;;13.90;72.20;;;;;;5053692;28;20486;-71
2023/06/25 03:21:25;;;;;;;7.07;5.97;;;13.90;72.70;;;;;;5053673;28;20489;-71
2023/06/25 03:23:54;;;;;;;7.40;5.77;;;13.90;72.50;;;;;;5053570;28;20467;-71
2023/06/25 03:26:21;;;;;;;10.43;8.07;;;13.90;72.80;;;;;;5053174;28;20475;-71
2023/06/25 03:28:48;;;;;;;9.70;6.80;;;13.90;73.00;;;;;;5053222;28;20528;-71
2023/06/25 03:31:14;;;;;;;8.68;6.72;;;13.80;72.60;;;;;;5053480;28;20768;-71
2023/06/25 03:33:41;;;;;;;11.17;7.23;;;13.80;73.10;;;;;;5053170;28;20631;-71
2023/06/25 03:36:08;;;;;;;6.73;5.80;;;13.70;73.50;;;;;;5053458;28;20427;-71
2023/06/25 03:38:35;;;;;;;9.23;6.00;;;13.70;73.50;;;;;;5053132;28;20443;-71
2023/06/25 03:41:04;;;;;;;7.60;6.43;;;13.80;73.50;;;;;;5053162;28;20469;-71
2023/06/25 03:43:31;;;;;;;7.83;6.10;;;13.70;74.20;;;;;;5052956;28;21042;-71
2023/06/25 03:45:58;;;;;;;7.63;5.97;;;13.70;73.40;;;;;;5053504;28;20435;-71
2023/06/25 03:48:24;;;;;;;7.37;5.47;;;13.70;74.10;;;;;;5053598;28;20253;-71
2023/06/25 03:50:51;;;;;;;5.83;5.20;;;13.60;74.60;;;;;;5053080;28;20478;-71
2023/06/25 03:53:18;;;;;;;6.72;5.53;;;13.70;75.10;;;;;;5053125;28;20472;-71
2023/06/25 03:55:45;;;;;;;6.03;5.43;;;13.60;75.20;;;;;;5053416;28;20242;-71
2023/06/25 03:58:14;;;;;;;7.40;5.80;;;13.70;75.10;;;;;;5053296;28;20447;-71
2023/06/25 04:00:40;;;;;;;8.18;6.07;;;13.70;75.50;;;;;;5053255;28;20470;-71
2023/06/25 04:03:07;;;;;;;7.20;5.60;;;13.80;75.10;;;;;;5055201;28;20227;-71
2023/06/25 04:05:34;;;;;;;7.90;5.90;;;13.70;75.60;;;;;;5056824;28;20428;-71
2023/06/25 04:08:01;;;;;;;9.70;6.40;;;13.80;75.50;;;;;;5056735;28;20956;-71
2023/06/25 04:10:29;;;;;;;10.27;5.83;;;13.80;75.40;;;;;;5056778;28;20426;-70
2023/06/25 04:12:56;;;;;;;7.63;5.30;;;13.80;75.50;;;;;;5057120;28;20472;-71
2023/06/25 04:15:24;;;;;;;7.97;5.70;;;13.80;75.90;;;;;;5056696;28;20500;-71
2023/06/25 04:17:51;;;;;;;7.20;4.87;;;13.70;75.60;;;;;;5056585;28;20509;-71
2023/06/25 04:20:18;;;;;;;6.80;5.40;;;13.70;76.00;;;;;;5056663;28;20910;-71
2023/06/25 04:22:45;;;;;;;10.30;6.10;;;13.70;76.50;;;;;;5056522;28;20959;-71
2023/06/25 04:25:11;;;;;;;7.13;6.43;;;13.80;77.20;;;;;;5056878;28;20847;-71
2023/06/25 04:27:39;;;;;;;7.63;6.40;;;13.80;77.50;;;;;;5056771;28;20498;-71
2023/06/25 04:30:07;;;;;;;6.03;4.60;;;13.80;77.80;;;;;;5056447;28;20481;-71
2023/06/25 04:32:35;;;;;;;8.00;5.73;;;13.90;77.60;;;;;;5056660;28;20224;-71
2023/06/25 04:35:02;;;;;;;6.97;6.07;;;13.90;78.00;;;;;;5056386;28;20459;-71
2023/06/25 04:37:29;;;;;;;7.87;6.70;;;13.90;77.90;;;;;;5056276;28;20481;-72
2023/06/25 04:39:56;;;;;;;9.30;6.10;;;14.00;78.30;;;;;;5056666;28;20805;-71
2023/06/25 04:42:23;;;;;;;7.87;5.80;;;14.00;78.70;;;;;;5056451;28;20493;-71
2023/06/25 04:44:52;;;;;;;5.90;5.30;;;14.10;79.90;;;;;;5056593;28;20463;-71
2023/06/25 04:47:19;;;;;;;8.27;5.80;;;14.10;80.30;;;;;;5056012;28;20483;-70
2023/06/25 04:49:48;;;;;;;10.33;5.90;;;14.30;79.70;;;;;;5056477;28;20434;-71
2023/06/25 04:52:19;;;;;;;9.33;6.07;;;14.40;79.80;;;;;;5053395;28;20434;-71
2023/06/25 04:54:46;;;;;;;7.67;6.27;;;14.40;80.30;;;;;;5055940;28;20423;-71
2023/06/25 04:57:13;;;;;;;7.10;6.17;;;14.50;79.80;;;;;;5055163;28;20478;-71
2023/06/25 04:59:40;;;;;;;6.10;4.87;;;14.60;79.50;;;;;;5055798;28;20439;-71
2023/06/25 05:02:07;;;;;;;7.23;6.17;;;14.70;79.60;;;;;;5054823;28;20815;-71
2023/06/25 05:04:39;;;;;;;8.20;5.70;;;14.80;79.30;;;;;;5056006;28;20432;-71
2023/06/25 05:07:07;;;;;;;6.17;5.00;;;14.90;79.00;;;;;;5056052;28;20460;-71
2023/06/25 05:09:47;;;;;;;9.23;7.00;;;15.00;78.50;;;;;;5056019;28;20474;-70
2023/06/25 05:12:32;;;;;;;7.87;6.37;;;15.10;78.40;;;;;;5056093;28;20442;-71
2023/06/25 05:15:08;;;;;;;9.20;7.13;;;15.10;78.40;;;;;;5055649;28;20812;-71
2023/06/25 05:17:39;;;;;;;7.83;6.00;;;15.20;78.50;;;;;;5055130;28;20427;-73
2023/06/25 05:20:11;;;;;;;9.07;6.60;;;15.30;79.00;;;;;;5055659;28;20419;-71
2023/06/25 05:22:50;;;;;;;9.40;6.50;;;15.40;78.60;;;;;;5053045;28;20472;-71
2023/06/25 05:25:28;;;;;;;6.77;5.23;;;15.50;78.80;;;;;;5054252;28;20419;-71
2023/06/25 05:28:01;;;;;;;7.53;6.03;;;15.70;78.40;;;;;;5054901;28;20458;-71
2023/06/25 05:30:36;;;;;;;9.77;6.30;;;15.80;78.20;;;;;;5054635;28;20919;-71
2023/06/25 05:33:08;;;;;;;8.87;6.43;;;15.90;78.70;;;;;;5054771;28;20419;-71
2023/06/25 05:35:40;;;;;;;8.77;6.13;;;16.00;78.90;;;;;;5054877;28;20426;-71
2023/06/25 05:38:08;;;;;;;9.90;6.50;;;16.10;79.00;;;;;;5054954;28;20430;-71
2023/06/25 05:40:35;;;;;;;7.30;6.03;;;16.20;78.30;;;;;;5054934;28;20771;-71
2023/06/25 05:43:02;;;;;;;6.80;5.63;;;16.30;78.10;;;;;;5054256;28;21031;-72
2023/06/25 05:45:29;;;;;;;7.43;6.10;;;16.50;77.70;;;;;;5054683;28;20476;-71
2023/06/25 05:47:56;;;;;;;8.70;6.33;;;16.50;77.00;;;;;;5054120;28;20507;-71
2023/06/25 05:50:28;;;;;;;6.93;5.53;;;16.60;77.10;;;;;;5054602;28;20846;-71
2023/06/25 05:53:00;;;;;;;8.20;6.17;;;16.80;76.20;;;;;;5054308;28;20444;-71
2023/06/25 05:55:31;;;;;;;5.83;5.20;;;16.90;76.00;;;;;;5054316;28;20478;-71
2023/06/25 05:57:58;;;;;;;7.83;7.03;;;16.90;75.60;;;;;;5054655;28;20489;-71
2023/06/25 06:00:26;;;;;;;9.43;6.00;;;17.00;75.50;;;;;;5054370;28;20485;-71
2023/06/25 06:02:53;;;;;;;7.47;5.10;;;17.20;75.50;;;;;;5054415;28;20477;-71
2023/06/25 06:05:20;;;;;;;7.90;5.73;;;17.20;75.80;;;;;;5054203;28;20458;-70
2023/06/25 06:07:47;;;;;;;7.70;5.30;;;17.40;76.40;;;;;;5054280;28;20428;-71
2023/06/25 06:10:17;;;;;;;9.80;5.83;;;17.50;75.70;;;;;;5053823;28;20438;-71
2023/06/25 06:12:46;;;;;;;6.67;5.00;;;17.50;74.70;;;;;;5054130;28;20455;-71
2023/06/25 06:15:13;;;;;;;6.43;5.33;;;17.60;74.90;;;;;;5054199;28;20805;-71
2023/06/25 06:17:40;;;;;;;6.77;5.20;;;17.70;75.20;;;;;;5054037;28;20806;-73
2023/06/25 06:20:08;;;;;;;6.17;5.20;;;17.90;75.90;;;;;;5053669;28;20466;-71
2023/06/25 06:22:35;;;;;;;7.23;5.40;;;18.00;76.00;;;;;;5053995;28;20475;-71
2023/06/25 06:25:03;;;;;;;7.90;6.00;;;18.10;75.20;;;;;;5053397;28;20451;-71
2023/06/25 06:27:31;;;;;;;7.40;5.83;;;18.20;75.00;;;;;;5053501;28;20434;-71
2023/06/25 06:30:01;;;;;;;6.83;5.67;;;18.30;74.80;;;;;;5053733;28;20520;-71
2023/06/25 06:32:28;;;;;;;7.50;6.53;;;18.40;74.60;;;;;;5053318;28;20944;-71
2023/06/25 06:34:55;;;;;;;7.50;5.67;;;18.40;74.10;;;;;;5053742;28;20515;-72
2023/06/25 06:37:22;;;;;;;8.23;4.80;;;18.60;74.60;;;;;;5053480;28;20440;-71
2023/06/25 06:39:49;;;;;;;7.60;6.00;;;18.70;73.40;;;;;;5053696;28;20438;-71
2023/06/25 06:42:25;;;;;;;7.00;5.50;;;18.80;72.80;;;;;;5053690;28;20521;-71
2023/06/25 06:44:52;;;;;;;7.03;6.33;;;18.90;72.10;;;;;;5053555;28;20435;-71
2023/06/25 06:47:21;;;;;;;5.60;5.00;;;19.00;70.20;;;;;;5053289;28;20439;-71
2023/06/25 06:49:48;;;;;;;7.07;5.40;;;19.10;70.50;;;;;;5053196;28;20533;-71
2023/06/25 06:52:16;;;;;;;9.23;5.70;;;19.10;70.50;;;;;;5052942;28;20490;-71
2023/06/25 06:54:45;;;;;;;6.20;4.93;;;19.20;69.70;;;;;;5053116;28;20436;-71
2023/06/25 06:57:16;;;;;;;6.00;4.87;;;19.40;69.60;;;;;;5051197;28;20435;-75
2023/06/25 06:59:48;;;;;;;6.97;5.57;;;19.50;69.60;;;;;;5051712;28;20909;-71
2023/06/25 07:02:20;;;;;;;6.13;4.63;;;19.60;69.20;;;;;;5052841;28;20460;-71
2023/06/25 07:04:48;;;;;;;6.47;5.20;;;19.70;68.70;;;;;;5053271;28;20420;-71
2023/06/25 07:07:15;;;;;;;6.23;4.60;;;19.80;68.10;;;;;;5052767;28;20429;-72
2023/06/25 07:09:50;;;;;;;5.00;4.20;;;19.90;68.30;;;;;;5052898;28;20799;-71
2023/06/25 07:12:17;;;;;;;6.77;4.73;;;20.10;69.40;;;;;;5052462;28;20462;-72
2023/06/25 07:14:44;;;;;;;9.40;5.20;;;20.20;69.20;;;;;;5052907;28;20486;-71
2023/06/25 07:17:11;;;;;;;5.57;4.60;;;20.30;69.00;;;;;;5052860;28;20431;-71
2023/06/25 07:19:38;;;;;;;7.23;5.60;;;20.40;68.70;;;;;;5052965;28;20476;-71
2023/06/25 07:22:06;;;;;;;7.80;5.03;;;20.60;68.40;;;;;;5053112;28;20514;-72
2023/06/25 07:24:34;;;;;;;5.47;4.80;;;20.80;67.10;;;;;;5053119;28;20487;-71
2023/06/25 07:27:01;;;;;;;6.80;5.20;;;20.90;66.60;;;;;;5052845;28;20982;-71
2023/06/25 07:29:29;;;;;;;6.70;4.50;;;21.00;64.40;;;;;;5053193;28;20822;-71
2023/06/25 07:31:56;;;;;;;6.07;4.60;;;21.10;62.90;;;;;;5064475;28;20427;-72
2023/06/25 07:34:26;;;;;;;5.50;4.27;;;21.20;64.90;;;;;;5058270;28;20790;-71
2023/06/25 07:36:53;;;;;;;7.10;4.67;;;21.30;64.60;;;;;;5053519;28;20449;-71
2023/06/25 07:39:29;;;;;;;5.87;4.27;;;21.40;63.30;;;;;;5057111;28;20439;-72
2023/06/25 07:41:57;;;;;;;8.15;5.40;;;21.60;62.20;;;;;;5036274;28;20445;-71
2023/06/25 07:44:25;;;;;;;6.77;4.10;;;21.70;60.10;;;;;;5037333;28;20179;-71
2023/06/25 07:46:53;;;;;;;5.80;4.00;;;21.80;58.70;;;;;;5036834;28;20913;-71
2023/06/25 07:49:20;;;;;;;6.30;3.80;;;22.00;56.50;;;;;;5037130;28;20461;-71
2023/06/25 07:51:50;;;;;;;4.87;3.47;;;22.20;54.70;;;;;;5072846;28;20914;-72
2023/06/25 07:54:18;;;;;;;7.17;4.10;;;22.30;54.40;;;;;;5060076;28;20431;-71
2023/06/25 07:56:47;;;;;;;5.73;3.50;;;22.40;53.70;;;;;;5056712;28;20752;-71
2023/06/25 07:59:15;;;;;;;5.00;3.83;;;22.40;53.90;;;;;;5055768;28;20441;-71
2023/06/25 08:01:44;;;;;;;6.33;3.73;;;22.60;53.30;;;;;;5056266;28;20433;-71
2023/06/25 08:04:11;;;;;;;5.80;4.13;;;22.80;52.60;;;;;;5056470;28;20434;-72
2023/06/25 08:06:39;;;;;;;5.77;4.10;;;22.90;51.70;;;;;;5057055;28;20419;-72
2023/06/25 08:09:06;;;;;;;4.60;3.47;;;23.00;50.90;;;;;;5056510;28;20828;-69
2023/06/25 08:11:34;;;;;;;8.00;3.57;;;23.10;51.00;;;;;;5056471;28;20513;-69
2023/06/25 08:14:03;;;;;;;4.77;3.50;;;23.30;51.70;;;;;;5054767;28;20518;-69
2023/06/25 08:16:30;;;;;;;5.17;4.20;;;23.30;52.00;;;;;;5058825;28;20448;-68
2023/06/25 08:18:58;;;;;;;5.60;4.13;;;23.50;51.70;;;;;;5056677;28;20418;-68
2023/06/25 08:21:25;;;;;;;4.83;3.50;;;23.60;51.90;;;;;;5073835;28;20952;-71
2023/06/25 08:23:51;;;;;;;6.23;4.20;;;23.70;51.10;;;;;;5067682;28;20775;-69
2023/06/25 08:26:18;;;;;;;5.03;3.80;;;23.90;49.50;;;;;;5073232;28;20526;-69
2023/06/25 08:28:46;;;;;;;5.50;4.40;;;24.10;49.90;;;;;;5070265;28;20502;-69
2023/06/25 08:31:14;;;;;;;7.03;4.10;;;24.20;50.20;;;;;;5057057;28;20794;-70
2023/06/25 08:33:41;;;;;;;5.07;3.53;;;24.30;49.80;;;;;;5064579;28;20930;-70
2023/06/25 08:36:08;;;;;;;5.80;3.73;;;24.40;48.20;;;;;;5065564;28;20477;-69
2023/06/25 08:38:37;;;;;;;4.70;3.60;;;24.50;47.80;;;;;;5056919;28;20500;-71
2023/06/25 08:41:04;;;;;;;8.37;4.03;;;24.70;47.60;;;;;;5063501;28;20442;-71
2023/06/25 08:43:31;;;;;;;6.73;4.70;;;24.80;47.60;;;;;;5067838;28;20509;-71
2023/06/25 08:45:58;;;;;;;4.90;3.73;;;24.90;47.80;;;;;;5076040;28;20900;-71
2023/06/25 08:48:29;;;;;;;5.00;3.63;;;25.10;47.00;;;;;;5075529;28;20943;-71
2023/06/25 08:50:58;;;;;;;5.13;4.27;;;25.20;47.50;;;;;;5076280;28;20801;-71
2023/06/25 08:53:27;;;;;;;8.00;4.50;;;25.40;46.10;;;;;;5075889;28;20430;-71
2023/06/25 08:55:56;;;;;;;5.83;3.80;;;25.50;45.60;;;;;;5076159;28;20763;-71
2023/06/25 08:58:29;;;;;;;8.20;4.37;;;25.60;44.80;;;;;;5076203;28;20483;-71
2023/06/25 09:00:56;;;;;;;5.17;4.50;;;25.70;41.50;;;;;;5075763;28;20518;-71
2023/06/25 09:03:27;;;;;;;6.40;4.73;;;25.80;42.50;;;;;;5076044;28;20496;-71
2023/06/25 09:05:59;;;;;;;4.87;3.53;;;25.90;40.50;;;;;;5076198;28;20489;-71
2023/06/25 09:08:27;;;;;;;10.70;5.00;;;25.90;38.70;;;;;;5076110;28;20812;-71
2023/06/25 09:10:55;;;;;;;6.23;4.50;;;25.90;37.30;;;;;;5075815;28;20516;-75
2023/06/25 09:13:28;;;;;;;5.40;3.90;;;25.90;37.80;;;;;;5075894;28;20466;-71
2023/06/25 09:16:02;;;;;;;5.67;4.23;;;25.90;40.10;;;;;;5075545;28;20420;-71
2023/06/25 09:18:31;;;;;;;5.63;4.23;;;26.10;40.00;;;;;;5075519;28;20418;-71
2023/06/25 09:21:02;;;;;;;6.37;4.33;;;26.10;40.40;;;;;;5075462;28;20472;-69
2023/06/25 09:23:30;;;;;;;8.20;4.70;;;26.20;41.00;;;;;;5075435;28;20419;-69
2023/06/25 09:26:04;;;;;;;6.50;4.70;;;26.40;41.10;;;;;;5075695;28;20433;-69
2023/06/25 09:28:32;;;;;;;5.60;4.50;;;26.50;40.80;;;;;;5075636;28;20420;-68
2023/06/25 09:31:01;;;;;;;6.37;5.20;;;26.70;38.60;;;;;;5075520;28;20506;-69
2023/06/25 09:33:34;;;;;;;7.07;5.77;;;26.70;38.00;;;;;;5075227;28;20554;-68
2023/06/25 09:36:02;;;;;;;5.97;4.80;;;26.80;38.40;;;;;;5075272;28;20895;-69
2023/06/25 09:38:29;;;;;;;5.67;4.50;;;26.90;36.90;;;;;;5075181;28;20477;-69
2023/06/25 09:40:58;;;;;;;5.67;4.30;;;26.90;37.30;;;;;;5075551;28;20443;-69
2023/06/25 09:43:26;;;;;;;6.83;4.67;;;26.90;37.00;;;;;;5074838;28;20460;-69
2023/06/25 09:45:54;;;;;;;5.70;4.47;;;27.00;37.90;;;;;;5074977;28;20937;-68
2023/06/25 09:48:24;;;;;;;6.50;4.93;;;27.10;38.20;;;;;;5074916;28;20947;-68
2023/06/25 09:50:56;;;;;;;5.93;4.53;;;27.20;36.50;;;;;;5075085;28;20555;-69
2023/06/25 09:53:26;;;;;;;5.30;3.53;;;27.20;35.60;;;;;;5074893;28;20911;-69
2023/06/25 09:55:53;;;;;;;6.57;4.70;;;27.30;36.40;;;;;;5075114;28;20432;-69
2023/06/25 09:58:22;;;;;;;4.90;3.90;;;27.40;37.00;;;;;;5075115;28;20436;-68
2023/06/25 10:00:50;;;;;;;6.90;4.13;;;27.50;36.10;;;;;;5074139;28;20436;-69
2023/06/25 10:03:18;;;;;;;5.80;4.13;;;27.60;37.30;;;;;;5074864;28;20432;-69
2023/06/25 10:05:51;;;;;;;6.73;5.00;;;27.70;36.60;;;;;;5074966;28;20432;-68
2023/06/25 10:08:20;;;;;;;5.23;4.23;;;27.80;35.80;;;;;;5074887;28;20807;-68
2023/06/25 10:10:57;;;;;;;6.00;4.43;;;27.90;36.10;;;;;;5074670;28;20464;-69
2023/06/25 10:13:24;;;;;;;6.57;5.10;;;28.00;34.90;;;;;;5074548;28;20432;-68
2023/06/25 10:15:58;;;;;;;5.70;4.40;;;28.00;35.70;;;;;;5074369;28;20428;-69
2023/06/25 10:18:27;;;;;;;6.73;4.80;;;28.10;34.70;;;;;;5073176;28;20423;-71
2023/06/25 10:20:57;;;;;;;6.43;4.83;;;28.10;34.40;;;;;;5041347;28;20441;-71
2023/06/25 10:23:26;;;;;;;5.90;4.43;;;28.20;34.80;;;;;;5061554;28;20440;-70
2023/06/25 10:25:54;;;;;;;7.20;4.73;;;28.30;35.10;;;;;;5053954;28;20465;-71
2023/06/25 10:28:29;;;;;;;7.13;5.10;;;28.40;32.30;;;;;;5053783;28;20456;-71
2023/06/25 10:30:59;;;;;;;6.70;5.30;;;28.40;31.70;;;;;;5053618;28;20463;-70
2023/06/25 10:33:29;;;;;;;5.63;4.53;;;28.40;31.20;;;;;;5053690;28;20797;-72
2023/06/25 10:36:02;;;;;;;6.67;5.20;;;28.30;33.00;;;;;;5053900;28;20437;-68
2023/06/25 10:38:31;;;;;;;5.63;4.40;;;28.50;32.70;;;;;;5053750;28;20440;-68
2023/06/25 10:40:58;;;;;;;6.10;4.60;;;28.50;31.80;;;;;;5053242;28;20765;-71
2023/06/25 10:43:30;;;;;;;6.47;4.50;;;28.50;32.70;;;;;;5053238;28;20886;-70
2023/06/25 10:45:58;;;;;;;6.40;5.00;;;28.60;32.40;;;;;;5053336;28;20970;-71
2023/06/25 10:48:26;;;;;;;6.87;5.57;;;28.70;32.70;;;;;;5052972;28;20434;-71
2023/06/25 10:50:59;;;;;;;7.93;4.63;;;28.70;30.20;;;;;;5053231;28;20543;-71
2023/06/25 10:53:26;;;;;;;6.33;4.77;;;28.70;30.20;;;;;;5053215;28;20422;-71
2023/06/25 10:55:55;;;;;;;5.70;4.20;;;28.70;30.40;;;;;;5053240;28;20749;-72
2023/06/25 10:58:24;;;;;;;8.33;5.47;;;28.80;30.80;;;;;;5053378;28;20430;-71
2023/06/25 11:00:56;;;;;;;6.10;5.17;;;28.90;31.90;;;;;;5053229;28;20441;-74
2023/06/25 11:03:27;;;;;;;5.80;4.73;;;28.90;29.40;;;;;;5055356;28;20460;-71
2023/06/25 11:05:57;;;;;;;7.00;4.80;;;29.00;30.80;;;;;;5063890;28;20841;-70
2023/06/25 11:08:29;;;;;;;5.10;3.70;;;29.10;29.80;;;;;;5054203;28;20527;-70
2023/06/25 11:10:57;;;;;;;6.70;4.83;;;29.10;30.20;;;;;;5050230;28;20465;-72
2023/06/25 11:13:24;;;;;;;5.23;4.60;;;29.20;30.90;;;;;;5052761;28;20483;-71
2023/06/25 11:15:55;;;;;;;6.07;5.13;;;29.30;29.80;;;;;;5052801;28;20907;-70
2023/06/25 11:18:22;;;;;;;6.70;5.20;;;29.30;29.90;;;;;;5053161;28;20483;-71
2023/06/25 11:20:53;;;;;;;8.10;5.90;;;29.40;28.60;;;;;;5057273;28;20502;-73
2023/06/25 11:23:20;;;;;;;9.50;5.17;;;29.50;28.80;;;;;;5052740;28;20500;-71
2023/06/25 11:25:52;;;;;;;6.50;5.10;;;29.50;28.30;;;;;;5051178;28;20437;-71
2023/06/25 11:28:24;;;;;;;6.57;5.27;;;29.50;27.40;;;;;;5052563;28;20429;-71
2023/06/25 11:30:58;;;;;;;6.80;5.30;;;29.40;27.10;;;;;;5065380;28;20457;-71
2023/06/25 11:33:30;;;;;;;7.10;6.07;;;29.40;27.50;;;;;;5073104;28;20900;-71
2023/06/25 11:36:09;;;;;;;8.23;5.97;;;29.40;28.70;;;;;;5072995;28;20955;-71
2023/06/25 11:38:35;;;;;;;7.13;5.30;;;29.40;26.20;;;;;;5072636;28;20423;-71
2023/06/25 11:41:03;;;;;;;9.40;5.80;;;29.50;26.30;;;;;;5065865;28;20469;-70
2023/06/25 11:43:33;;;;;;;7.17;6.23;;;29.50;27.00;;;;;;5067213;28;20476;-71
2023/06/25 11:46:02;;;;;;;6.77;5.80;;;29.50;26.20;;;;;;5066899;28;20429;-71
2023/06/25 11:48:29;;;;;;;7.87;5.70;;;29.50;26.80;;;;;;5073086;28;20439;-69
2023/06/25 11:51:12;;;;;;;7.73;5.97;;;29.60;25.40;;;;;;5073290;28;20468;-68
2023/06/25 11:53:39;;;;;;;8.10;5.43;;;29.70;26.20;;;;;;5073325;28;20512;-69
2023/06/25 11:56:07;;;;;;;7.67;5.70;;;29.70;25.70;;;;;;5073266;28;20511;-69
2023/06/25 11:58:41;;;;;;;9.60;6.07;;;29.60;25.40;;;;;;5073154;28;20493;-69
2023/06/25 12:01:10;;;;;;;5.80;5.13;;;29.50;26.90;;;;;;5073247;28;20421;-69
2023/06/25 12:03:37;;;;;;;6.90;5.67;;;29.60;27.60;;;;;;5073131;28;20777;-68
2023/06/25 12:06:09;;;;;;;9.50;7.27;;;29.60;26.20;;;;;;5072828;28;20906;-69
2023/06/25 12:09:02;;;;;;;8.33;7.33;;;29.60;27.50;;;;;;5072858;28;20903;-69
2023/06/25 12:11:29;;;;;;;8.40;7.30;;;29.60;25.30;;;;;;5073047;28;21012;-69
2023/06/25 12:13:57;;;;;;;8.27;7.40;;;29.60;24.30;;;;;;5072703;28;20459;-69
2023/06/25 12:16:24;;;;;;;7.20;5.40;;;29.70;27.30;;;;;;5072965;28;20493;-68
2023/06/25 12:18:52;;;;;;;12.60;6.03;;;29.80;27.70;;;;;;5073101;28;20428;-69
2023/06/25 12:21:21;;;;;;;7.30;6.10;;;29.90;27.90;;;;;;5072938;28;20432;-70
2023/06/25 12:23:49;;;;;;;7.03;4.97;;;30.00;26.80;;;;;;5074374;28;20489;-71
2023/06/25 12:26:16;;;;;;;10.40;6.40;;;30.10;27.00;;;;;;5076406;28;20498;-70
2023/06/25 12:28:44;;;;;;;7.77;6.30;;;30.10;26.60;;;;;;5076383;28;20477;-70
2023/06/25 12:31:13;;;;;;;7.90;6.00;;;30.10;27.30;;;;;;5076172;28;20475;-70
2023/06/25 12:33:40;;;;;;;6.53;5.43;;;30.10;26.60;;;;;;5076541;28;20432;-70
2023/06/25 12:36:07;;;;;;;7.03;6.00;;;30.10;26.80;;;;;;5076639;28;20842;-71
2023/06/25 12:38:38;;;;;;;7.23;5.90;;;30.20;26.60;;;;;;5076611;28;20510;-70
2023/06/25 12:41:07;;;;;;;8.20;5.93;;;30.10;26.70;;;;;;5076153;28;20474;-70
2023/06/25 12:43:34;;;;;;;8.20;6.17;;;30.20;27.10;;;;;;5076027;28;20456;-68
2023/06/25 12:46:06;;;;;;;7.43;6.13;;;30.10;27.20;;;;;;5076422;28;20464;-68
2023/06/25 12:48:37;;;;;;;7.30;6.27;;;30.20;26.40;;;;;;5076415;28;20417;-68
2023/06/25 12:51:04;;;;;;;6.97;6.27;;;30.20;26.30;;;;;;5075980;28;21037;-68
2023/06/25 12:53:36;;;;;;;7.53;6.40;;;30.20;25.90;;;;;;5076369;28;20819;-68